AirNav   Pilot Hours Calculator
 
 509 users online  

KGPM Grand Prairie Municipal Airport
Grand Prairie, Texas, USA

GOING TO GRAND PRAIRIE?


FAA INFORMATION EFFECTIVE 08 OCTOBER 2020

Location

FAA Identifier: GPM
Lat/Long: 32-41-55.6000N 097-02-48.9000W
32-41.926667N 097-02.815000W
32.6987778,-97.0469167
(estimated)
Elevation: 588.4 ft. / 179.3 m (surveyed)
Variation: 06E (2000)
From city: 4 miles SW of GRAND PRAIRIE, TX
Time zone: UTC -5 (UTC -6 during Standard Time)
Zip code: 75052

Airport Operations

Airport use: Open to the public
Activation date: 06/1968
Control tower: yes
ARTCC: FORT WORTH CENTER
FSS: FORT WORTH FLIGHT SERVICE STATION
NOTAMs facility: GPM (NOTAM-D service available)
Attendance: MARCH-OCTOBER MON-SAT 0700-2100, NOVEMBER-FEBRUARY MON-SAT 0800-1800, ALL SUN 0800-1800
Pattern altitude: 1200.4 ft. MSL
TPA: 812 FT AGL FIXED WING, 612 FT AGL ROTARY WING.
Wind indicator: lighted
Segmented circle: yes
Lights: MIRL RWY 17/35 PRESET LOW INTST; TO INCR INTST & ACTVT REIL RWY 35 AFT ATCT CLOSED - CTAF. VASI RWYS 17 & 35 OPRS CONSLY.
Beacon: white-green (lighted land airport)
Operates sunset to sunrise.

Airport Communications

CTAF: 128.55
UNICOM: 123.075
WX AWOS-3P: 118.475 (972-606-1433)
GRAND PRAIRIE GROUND: 121.15 [0700-2100 DALGT TIME; 0800-1800 STANDARD TIME]
GRAND PRAIRIE TOWER: 128.55 [0700-2100 DALGT TIME; 0800-1800 STANDARD TIME]
REGIONAL APPROACH: 135.975
REGIONAL DEPARTURE: 135.975
DODJE STAR: 125.2 125.9
JOE POOL DP: 135.975
KNEAD STAR: 135.975
LIKES STAR: 125.8 ;SOUTH 135.975 ;NORTH
MOTZA STAR: 118.1 ;SOUTH 125.8 ;NORTH
REEKO STAR: 125.2
SANGR STAR: 124.3
SASIE STAR: 124.3
SLUGG STAR: 125.8 ;SOUTH 135.975 ;NORTH
SWVAY STAR: 135.975
WESAT STAR: 118.1 ;SOUTH 125.8 ;NORTH
WX ASOS at GKY (3 nm SW): 127.375 (817-557-0251)
WX ASOS at RBD (9 nm E): PHONE 214-330-5317
WX ASOS at DFW (12 nm N): PHONE 972-615-2608
WX AWOS-3 at 49T (13 nm E): 135.425 (214-670-1243)
WX ASOS at DAL (13 nm NE): PHONE 214-353-1551
WX AWOS-3 at FWS (15 nm SW): 120.025 (817-426-4172)
WX AWOS-3 at JWY (16 nm SE): 119.575 (972-937-4747)
WX ASOS at FTW (17 nm NW): PHONE 817-740-3346
WX AWOS-3 at LNC (18 nm SE): 118.975 (972-227-0471)
WX AWOS-3 at ADS (19 nm NE): PHONE 972-386-4855

Nearby radio navigation aids

VOR radial/distance  VOR name  Freq  Var
TTTr176/10.2MAVERICK VOR/DME113.1006E
FUZr144/13.2RANGER VORTAC115.7006E
CVEr206/13.6COWBOY VOR/DME116.2006E

 
NDB name  Hdg/Dist  Freq  Var  ID
MESQUITE253/27.024803EPQF .--. --.- ..-.

Airport Services

Fuel available: 100LL JET-A
Parking: hangars and tiedowns
Airframe service: MAJOR
Powerplant service: MAJOR
Bottled oxygen: NONE
Bulk oxygen: HIGH/LOW

Runway Information

Runway 17/35

Dimensions: 4001 x 75 ft. / 1220 x 23 m
Surface: concrete, in good condition
Weight bearing capacity: 
Single wheel: 30.0
Runway edge lights: medium intensity
RUNWAY 17  RUNWAY 35
Latitude: 32-42.256870N32-41.597050N
Longitude: 097-02.812673W097-02.817323W
Elevation: 581.5 ft.572.8 ft.
Traffic pattern: leftright
Runway heading: 174 magnetic, 180 true354 magnetic, 000 true
Markings: nonprecision, in good conditionnonprecision, in good condition
Visual slope indicator: 4-box VASI on left (3.00 degrees glide path)4-box VASI on left (4.00 degrees glide path)
Runway end identifier lights: yes
Touchdown point: yes, no lightsyes, no lights
Obstructions: 40 ft. trees, 1040 ft. from runway, 225 ft. right of centerline, 21:1 slope to clear21 ft. road, 630 ft. from runway, 20:1 slope to clear

Airport Ownership and Management from official FAA records

Ownership: Publicly-owned
Owner: CITY OF GRAND PRAIRIE
PO BOX 534045
GRAND PRAIRIE, TX 75053-4045
Phone 972-237-8015
Manager: MARK DIVITA
3116 S GT SOUTHWEST PKWY
GRAND PRAIRIE, TX 75052-7238
Phone (972) 237-7591

Airport Operational Statistics

Aircraft based on the field: 191
Single engine airplanes: 178
Multi engine airplanes: 11
Jet airplanes: 1
Helicopters: 1
    
Aircraft operations: avg 180/day *
49% local general aviation
33% transient general aviation
18% military
<1% air taxi
* for 12-month period ending 31 December 2015

Additional Remarks

EXTSV HEL TFC WEST SIDE OF ARPT.
FOR CD WHEN ATCT IS CLSD CTC REGIONAL APCH AT 972-615-2799.
WEST GRASS FOR ROTARY WING USE ONLY.

Instrument Procedures

NOTE: All procedures below are presented as PDF files. If you need a reader for these files, you should download the free Adobe Reader.

NOT FOR NAVIGATION. Please procure official charts for flight.
FAA instrument procedures published for use from 08 October 2020 at 0901Z to 05 November 2020 at 0900Z.

 
STARs - Standard Terminal Arrivals
DODJE SIX   2 pages: [1] [2] (767KB)
MOTZA NINE   2 pages: [1] [2] (527KB)
REEKO THREE (RNAV)   download (216KB)
SASIE SIX   2 pages: [1] [2] (514KB)
SWVAY FOUR (RNAV)   download (247KB)
TRUUK TWO (RNAV)   download (216KB)
WESAT TWO (RNAV)   download (209KB)
 
IAPs - Instrument Approach Procedures
RNAV (GPS) RWY 35   download (177KB)
VOR/DME RWY 35   download (196KB)
NOTE: Special Alternate Minimums apply   download (17KB)
 
Departure Procedures
DALLAS SIX   2 pages: [1] [2] (387KB)
GARLAND EIGHT   2 pages: [1] [2] (354KB)
JOE POOL ONE   2 pages: [1] [2] (548KB)
KINGDOM SEVEN   2 pages: [1] [2] (380KB)
KUSSO SIX (RNAV)   2 pages: [1] [2] (327KB)
SWABR SIX (RNAV)   2 pages: [1] [2] (329KB)
TEXOMA EIGHT   2 pages: [1] [2] (489KB)
WORTH FOUR   2 pages: [1] [2] (421KB)
NOTE: Special Take-Off Minimums/Departure Procedures apply   download

Other nearby airports with instrument procedures:

KGKY - Arlington Municipal Airport (3 nm SW)
KRBD - Dallas Executive Airport (9 nm E)
KDFW - Dallas-Fort Worth International Airport (12 nm N)
KDAL - Dallas Love Field Airport (13 nm NE)
KFWS - Fort Worth Spinks Airport (15 nm SW)
KJWY - Mid-Way Regional Airport (16 nm SE)
KFTW - Fort Worth Meacham International Airport (17 nm NW)
KLNC - Lancaster Regional Airport (18 nm SE)
KADS - Addison Airport (19 nm NE)
 
Loc | Ops | Rwys | IFR | FBO | Links
Com | Nav | Svcs | Stats | Notes

City of Fort Worth
 
Area around KGPM (Grand Prairie Municipal Airport)
 
Road maps at: MapQuest Bing Google
 
Aerial photo
WARNING: Photo may not be current or correct
Aerial photo of KGPM (Grand Prairie Municipal Airport)
Photo taken 16-Nov-2018
looking north-northeast.

Do you have a better or more recent aerial photo of Grand Prairie Municipal Airport that you would like to share? If so, please send us your photo.

 
Sectional chart

 
Airport diagram
CAUTION: Diagram may not be current
Diagram of KGPM (Grand Prairie Municipal Airport)
Download PDF
of official airport diagram from the FAA

 
Airport distance calculator
Flying to Grand Prairie Municipal Airport? Find the distance to fly.

From to KGPM

Sunrise and sunset
Times for 20-Oct-2020
 Local
(UTC-5)
 Zulu
(UTC)
Morning civil twilight07:1312:13
Sunrise07:3812:38
Sunset18:4823:48
Evening civil twilight19:1300:13

Current date and time
Zulu (UTC)  20-Oct-2020 07:26:00
Local (UTC-5)  20-Oct-2020 02:26:00
 
METAR
KGPM 200655Z AUTO 36003KT 10SM SCT022 OVC028 17/12 A3002 RMK AO2 T01700122
KGKY 
3nm SW 
200653Z AUTO 03003KT 10SM SCT021 BKN029 OVC033 19/13 A3000 RMK AO2 SLP154 T01890133
KRBD 
9nm E 
200703Z AUTO 08003KT 10SM BKN021 BKN032 OVC050 18/13 A3000 RMK AO2 T01780133
KDFW 
12nm N 
200653Z 02005KT 10SM FEW026 BKN032 17/13 A3000 RMK AO2 SLP153 T01670128
KDAL 
13nm NE 
200653Z 35003KT 10SM FEW024 SCT032 BKN048 17/13 A3001 RMK AO2 SLP157 T01670128
KFWS 
15nm SW 
200655Z AUTO 00000KT 10SM 17/13 A3003 RMK AO2 T01700127 PWINO
KJWY 
16nm SE 
200655Z AUTO 06003KT 10SM OVC017 18/15 A3002 RMK AO2 T01750147
KFTW 
18nm NW 
200653Z AUTO 04004KT 10SM OVC026 15/12 A3000 RMK AO2 SLP156 T01500117
KLNC 
18nm SE 
200655Z AUTO 00000KT 10SM BKN021 OVC026 18/14 A3002 RMK AO2 T01780138
KADS 
20nm NE 
200655Z AUTO 00000KT 10SM SCT027 SCT038 15/12 A3002 RMK AO2 T01530120
TAF
KGKY 
3nm SW 
200520Z 2006/2106 04003KT P6SM SCT025 OVC040 FM200700 07003KT P6SM BKN022 FM200800 06003KT 5SM BR OVC013 FM201300 16005KT P6SM OVC011 FM201900 16009KT P6SM SCT050
KDFW 
12nm N 
200520Z 2006/2112 01004KT P6SM SCT024 OVC035 FM200700 03004KT P6SM OVC024 FM200800 04003KT 5SM BR OVC015 FM201300 17006KT P6SM OVC011 FM201900 18009KT P6SM SCT050
KDAL 
13nm NE 
200520Z 2006/2106 02003KT P6SM SCT024 OVC025 FM200700 03003KT P6SM OVC024 FM200800 05003KT 5SM BR OVC015 FM201300 17005KT P6SM OVC010 FM201900 17007KT P6SM SCT045
KFTW 
18nm NW 
200520Z 2006/2106 01004KT P6SM SCT028 OVC040 FM200700 03004KT P6SM OVC028 FM200800 05003KT 5SM BR OVC016 FM201300 16004KT P6SM OVC012 FM201900 17008KT P6SM SCT045
NOTAMs
Click for the latest NOTAMs
NOTAMs are issued by the DoD/FAA and will open in a separate window not controlled by AirNav.

 

 
 

FBO, Fuel Providers, and Aircraft Ground Support

  
 Business Name 
 
 Contact 
 
 Services / Description 
 
Fuel Prices
 
Comments
  
 Aviator Air Flight School
972-988-8609
[web site]
[email]

Like us on facebook
Aviation fuel, Aircraft parking (ramp or tiedown), Passenger terminal and lounge, Pilot school (FAR Part 141), Flight training, ...
 
Courtesy car   Enterprise Rent-A-Car  
 
More info about Aviator Air Flight School
Avfuel
100LL Jet A
FS $3.83 $3.45 
GUARANTEED
 
   2 read write
 City of Grand Prairie
972-237-7591
972-237-7592
[web site]
[email]
Airport management, Aviation fuel, Aircraft parking (ramp or tiedown), Hangar leasing / sales, Pilots lounge / snooze room, Public telephone, Internet access, ...

More info about City of Grand Prairie
Avfuel
100LL Jet A
SS $3.52 $3.16 
GUARANTEED
 
   write
FS=Full service
SS=Self service
Update Fuel Prices
 

Aviation Businesses, Services, and Facilities

  
 Business Name 
 
 Contact 
 
 Services / Description 
 
Distance
 
Comments
  
 J&G Aviation, LLC
817-881-5182
817-304-3520
[web site]
[email]
Aircraft maintenance

More info about J&G Aviation, LLC
on airport  
   write
 

Where to Eat: Catering, Restaurants, Food shops

  
 Business Name 
 
 Contact 
 
 Services / Description 
 
Distance
 
Comments
  
 Radial Engine Cafe
972-595-5420 Restaurant

More info about Radial Engine Cafe
on airport  
   write
 

Would you like to see your business listed on this page?

 If your business provides an interesting product or service to pilots, flight crews, aircraft, or users of the Grand Prairie Municipal Airport, you should consider listing it here.  To start the listing process, click on the button below
 
Add a business
 

Other Pages about Grand Prairie Municipal Airport

www.gptx.org/...
 
Update a link
 
Copyright © AirNav, LLC. All rights reserved. Privacy Policy  Contact